createdAt,value
2022-07-29T00:01:09.089Z,24.70
2022-07-29T00:03:47.864Z,24.60
2022-07-29T00:06:17.311Z,24.50
2022-07-29T00:08:45.316Z,24.50
2022-07-29T00:11:13.271Z,24.40
2022-07-29T00:13:41.204Z,24.40
2022-07-29T00:16:09.176Z,24.30
2022-07-29T00:18:37.105Z,24.30
2022-07-29T00:21:07.269Z,24.30
2022-07-29T00:23:36.991Z,24.30
2022-07-29T00:26:05.004Z,24.20
2022-07-29T00:28:33.008Z,24.20
2022-07-29T00:31:01.067Z,24.30
2022-07-29T00:33:29.028Z,24.40
2022-07-29T00:35:56.031Z,24.50
2022-07-29T00:38:25.234Z,24.60
2022-07-29T00:40:54.546Z,24.70
2022-07-29T00:43:22.562Z,24.70
2022-07-29T00:45:50.591Z,24.60
2022-07-29T00:48:19.646Z,24.50
2022-07-29T00:50:47.589Z,24.50
2022-07-29T00:53:15.503Z,24.50
2022-07-29T00:55:43.403Z,24.40
2022-07-29T00:58:13.782Z,24.40
2022-07-29T01:00:42.250Z,24.30
2022-07-29T01:03:10.453Z,24.30
2022-07-29T01:05:50.271Z,24.30
2022-07-29T01:08:19.702Z,24.20
2022-07-29T01:10:47.614Z,24.20
2022-07-29T01:13:16.987Z,24.30
2022-07-29T01:15:48.985Z,24.40
2022-07-29T01:18:22.168Z,24.50
2022-07-29T01:21:02.519Z,24.70
2022-07-29T01:23:48.250Z,24.70
2022-07-29T01:26:30.379Z,24.60
2022-07-29T01:29:10.118Z,24.60
2022-07-29T01:31:55.230Z,24.50
2022-07-29T01:34:31.853Z,24.50
2022-07-29T01:37:03.933Z,24.40
2022-07-29T01:39:33.525Z,24.30
2022-07-29T01:42:03.746Z,24.30
2022-07-29T01:44:36.631Z,24.30
2022-07-29T01:47:08.077Z,24.30
2022-07-29T01:49:38.576Z,24.20
2022-07-29T01:52:09.613Z,24.20
2022-07-29T01:54:39.812Z,24.30
2022-07-29T01:57:09.219Z,24.40
2022-07-29T01:59:38.573Z,24.50
2022-07-29T02:02:07.204Z,24.60
2022-07-29T02:04:35.325Z,24.70
2022-07-29T02:07:05.094Z,24.60
2022-07-29T02:09:33.710Z,24.50
2022-07-29T02:12:02.105Z,24.50
2022-07-29T02:14:32.060Z,24.50
2022-07-29T02:17:01.369Z,24.40
2022-07-29T02:19:29.374Z,24.40
2022-07-29T02:21:57.609Z,24.30
2022-07-29T02:24:25.693Z,24.30
2022-07-29T02:26:54.759Z,24.30
2022-07-29T02:29:23.177Z,24.20
2022-07-29T02:31:51.370Z,24.20
2022-07-29T02:34:21.724Z,24.20
2022-07-29T02:36:52.127Z,24.30
2022-07-29T02:39:20.129Z,24.40
2022-07-29T02:41:49.815Z,24.50
2022-07-29T02:44:19.629Z,24.60
2022-07-29T02:46:50.333Z,24.70
2022-07-29T02:49:25.184Z,24.60
2022-07-29T02:51:55.185Z,24.50
2022-07-29T02:54:28.125Z,24.50
2022-07-29T02:56:56.525Z,24.50
2022-07-29T02:59:25.704Z,24.40
2022-07-29T03:01:53.762Z,24.30
2022-07-29T03:04:23.185Z,24.30
2022-07-29T03:06:51.204Z,24.30
2022-07-29T03:09:19.173Z,24.20
2022-07-29T03:11:50.438Z,24.20
2022-07-29T03:14:20.272Z,24.20
2022-07-29T03:16:48.876Z,24.20
2022-07-29T03:19:17.164Z,24.30
2022-07-29T03:21:46.489Z,24.40
2022-07-29T03:24:26.906Z,24.60
2022-07-29T03:26:54.848Z,24.70
2022-07-29T03:29:22.880Z,24.60
2022-07-29T03:31:55.142Z,24.60
2022-07-29T03:34:23.728Z,24.50
2022-07-29T03:36:53.039Z,24.50
2022-07-29T03:39:23.950Z,24.40
2022-07-29T03:41:53.729Z,24.40
2022-07-29T03:44:21.735Z,24.30
2022-07-29T03:46:49.924Z,24.30
2022-07-29T03:49:18.194Z,24.30
2022-07-29T03:51:46.212Z,24.20
2022-07-29T03:54:15.994Z,24.20
2022-07-29T03:56:47.090Z,24.20
2022-07-29T03:59:15.591Z,24.30
2022-07-29T04:01:43.689Z,24.40
2022-07-29T04:04:11.665Z,24.50
2022-07-29T04:06:40.849Z,24.50
2022-07-29T04:09:09.865Z,24.50
2022-07-29T04:12:01.756Z,24.50
2022-07-29T04:14:27.828Z,24.40
2022-07-29T04:16:56.201Z,24.40
2022-07-29T04:19:24.172Z,24.40
2022-07-29T04:21:52.246Z,24.30
2022-07-29T04:24:20.506Z,24.30
2022-07-29T04:26:50.080Z,24.30
2022-07-29T04:29:17.999Z,24.30
2022-07-29T04:31:45.960Z,24.40
2022-07-29T04:34:14.501Z,24.50
2022-07-29T04:36:44.290Z,24.60
2022-07-29T04:39:12.216Z,24.60
2022-07-29T04:41:40.228Z,24.50
2022-07-29T04:44:09.508Z,24.50
2022-07-29T04:46:37.768Z,24.40
2022-07-29T04:49:05.839Z,24.40
2022-07-29T04:51:33.840Z,24.30
2022-07-29T04:54:03.763Z,24.30
2022-07-29T04:56:31.764Z,24.30
2022-07-29T04:58:59.718Z,24.40
2022-07-29T05:01:29.137Z,24.50
2022-07-29T05:04:00.340Z,24.60
2022-07-29T05:06:28.675Z,24.60
2022-07-29T05:08:56.620Z,24.50
2022-07-29T05:11:29.993Z,24.50
2022-07-29T05:13:58.372Z,24.40
2022-07-29T05:16:27.793Z,24.40
2022-07-29T05:18:55.810Z,24.30
2022-07-29T05:21:23.782Z,24.30
2022-07-29T05:23:51.676Z,24.20
2022-07-29T05:26:19.606Z,24.20
2022-07-29T05:28:47.572Z,24.20
2022-07-29T05:31:15.816Z,24.10
2022-07-29T05:33:45.267Z,24.10
2022-07-29T05:36:13.250Z,24.10
2022-07-29T05:38:41.167Z,24.20
2022-07-29T05:41:09.140Z,24.40
2022-07-29T05:43:37.083Z,24.50
2022-07-29T05:46:05.136Z,24.60
2022-07-29T05:48:33.215Z,24.60
2022-07-29T05:51:02.826Z,24.50
2022-07-29T05:53:30.782Z,24.50
2022-07-29T05:55:58.880Z,24.40
2022-07-29T05:58:26.814Z,24.40
2022-07-29T06:00:54.886Z,24.30
2022-07-29T06:03:22.821Z,24.30
2022-07-29T06:05:50.828Z,24.30
2022-07-29T06:08:20.178Z,24.30
2022-07-29T06:10:48.149Z,24.40
2022-07-29T06:13:16.928Z,24.50
2022-07-29T06:15:44.971Z,24.60
2022-07-29T06:18:14.301Z,24.50
2022-07-29T06:20:42.279Z,24.50
2022-07-29T06:23:10.913Z,24.40
2022-07-29T06:25:41.611Z,24.40
2022-07-29T06:28:09.559Z,24.40
2022-07-29T06:30:37.556Z,24.30
2022-07-29T06:33:05.548Z,24.20
2022-07-29T06:35:39.413Z,24.20
2022-07-29T06:38:30.043Z,24.20
2022-07-29T06:41:06.101Z,24.20
2022-07-29T06:43:52.020Z,24.10
2022-07-29T06:46:21.209Z,24.10
2022-07-29T06:48:49.552Z,24.30
2022-07-29T06:51:21.728Z,24.40
2022-07-29T06:53:59.075Z,24.50
2022-07-29T06:56:32.278Z,24.50
2022-07-29T06:59:06.284Z,24.50
2022-07-29T07:01:34.364Z,24.50
2022-07-29T07:04:02.444Z,24.40
2022-07-29T07:06:30.435Z,24.40
2022-07-29T07:08:58.429Z,24.30
2022-07-29T07:11:26.412Z,24.30
2022-07-29T07:14:00.632Z,24.20
2022-07-29T07:16:30.890Z,24.20
2022-07-29T07:18:58.840Z,24.30
2022-07-29T07:21:26.870Z,24.40
2022-07-29T07:23:58.412Z,24.50
2022-07-29T07:26:26.391Z,24.50
2022-07-29T07:28:55.709Z,24.50
2022-07-29T07:31:23.803Z,24.40
2022-07-29T07:33:52.592Z,24.40
2022-07-29T07:36:20.608Z,24.30
2022-07-29T07:38:48.582Z,24.30
2022-07-29T07:41:16.550Z,24.20
2022-07-29T07:43:44.472Z,24.20
2022-07-29T07:46:13.881Z,24.20
2022-07-29T07:48:42.002Z,24.10
2022-07-29T07:51:09.930Z,24.10
2022-07-29T07:53:37.947Z,24.10
2022-07-29T07:56:10.843Z,24.10
2022-07-29T07:58:39.456Z,24.20
2022-07-29T08:01:07.513Z,24.30
2022-07-29T08:03:36.994Z,24.40
2022-07-29T08:06:05.063Z,24.50
2022-07-29T08:08:32.997Z,24.50
2022-07-29T08:11:06.929Z,24.50
2022-07-29T08:13:37.292Z,24.40
2022-07-29T08:16:12.629Z,24.40
2022-07-29T08:18:42.518Z,24.40
2022-07-29T08:21:10.466Z,24.30
2022-07-29T08:23:46.867Z,24.30
2022-07-29T08:26:17.588Z,24.20
2022-07-29T08:28:46.788Z,24.30
2022-07-29T08:31:15.362Z,24.40
2022-07-29T08:33:44.809Z,24.40
2022-07-29T08:36:13.972Z,24.50
2022-07-29T08:38:41.982Z,24.50
2022-07-29T08:41:09.935Z,24.50
2022-07-29T08:43:39.083Z,24.40
2022-07-29T08:46:07.075Z,24.40
2022-07-29T08:48:35.159Z,24.30
2022-07-29T08:51:04.650Z,24.30
2022-07-29T08:53:33.261Z,24.20
2022-07-29T08:56:01.307Z,24.20
2022-07-29T08:58:29.335Z,24.20
2022-07-29T09:00:57.920Z,24.30
2022-07-29T09:03:26.913Z,24.40
2022-07-29T09:05:54.870Z,24.50
2022-07-29T09:08:24.249Z,24.50
2022-07-29T09:10:52.624Z,24.40
2022-07-29T09:13:20.583Z,24.30
2022-07-29T09:15:48.586Z,24.30
2022-07-29T09:18:35.190Z,24.30
2022-07-29T09:21:20.694Z,24.20
2022-07-29T09:24:07.780Z,24.20
2022-07-29T09:26:36.684Z,24.10
2022-07-29T09:29:10.491Z,24.10
2022-07-29T09:31:39.881Z,24.10
2022-07-29T09:34:08.599Z,24.10
2022-07-29T09:36:41.509Z,24.10
2022-07-29T09:39:10.848Z,24.20
2022-07-29T09:41:47.284Z,24.30
2022-07-29T09:44:15.731Z,24.40
2022-07-29T09:46:59.960Z,24.50
2022-07-29T09:49:28.044Z,24.50
2022-07-29T09:52:06.833Z,24.40
2022-07-29T09:54:38.970Z,24.40
2022-07-29T09:57:07.505Z,24.30
2022-07-29T09:59:35.512Z,24.30
2022-07-29T10:02:03.448Z,24.20
2022-07-29T10:04:41.476Z,24.20
2022-07-29T10:07:09.395Z,24.10
2022-07-29T10:09:38.653Z,24.10
2022-07-29T10:12:08.350Z,24.10
2022-07-29T10:14:36.339Z,24.10
2022-07-29T10:17:04.721Z,24.10
2022-07-29T10:19:33.118Z,24.00
2022-07-29T10:22:01.650Z,24.10
2022-07-29T10:24:30.300Z,24.30
2022-07-29T10:27:00.183Z,24.40
2022-07-29T10:29:28.220Z,24.70
2022-07-29T10:32:04.161Z,24.90
2022-07-29T10:34:37.574Z,25.10
2022-07-29T10:37:09.937Z,25.30
2022-07-29T10:39:48.912Z,25.50
2022-07-29T10:42:33.979Z,25.60
2022-07-29T10:45:03.058Z,25.60
2022-07-29T10:47:32.422Z,25.70
2022-07-29T10:50:03.869Z,25.80
2022-07-29T10:52:57.356Z,25.80
2022-07-29T10:55:37.522Z,25.60
2022-07-29T11:01:05.086Z,25.30
2022-07-29T11:03:49.651Z,25.10
2022-07-29T11:06:26.534Z,25.00
2022-07-29T11:09:18.055Z,24.90
2022-07-29T11:11:51.650Z,24.70
2022-07-29T11:14:26.372Z,24.70
2022-07-29T11:17:06.091Z,24.70
2022-07-29T11:19:34.830Z,24.80
2022-07-29T11:22:04.668Z,24.90
2022-07-29T11:24:35.139Z,24.90
2022-07-29T11:27:13.664Z,24.80
2022-07-29T11:29:50.355Z,24.70
2022-07-29T11:32:22.842Z,24.70
2022-07-29T11:35:17.548Z,24.60
2022-07-29T11:40:35.137Z,24.40
2022-07-29T11:43:07.401Z,24.40
2022-07-29T11:45:48.535Z,24.40
2022-07-29T11:51:12.087Z,24.60
2022-07-29T11:53:41.279Z,24.60
2022-07-29T11:56:10.651Z,24.60
2022-07-29T11:58:44.364Z,24.50
2022-07-29T12:01:16.749Z,24.40
2022-07-29T12:03:46.065Z,24.40
2022-07-29T12:06:17.390Z,24.30
2022-07-29T12:09:03.153Z,24.30
2022-07-29T12:11:33.025Z,24.30
2022-07-29T12:14:00.927Z,24.30
2022-07-29T12:16:38.280Z,24.40
2022-07-29T12:19:06.417Z,24.50
2022-07-29T12:21:52.252Z,24.60
2022-07-29T12:24:26.503Z,24.60
2022-07-29T12:26:56.373Z,24.50
2022-07-29T12:29:34.517Z,24.40
2022-07-29T12:32:14.199Z,24.40
2022-07-29T12:34:43.097Z,24.30
2022-07-29T12:37:11.532Z,24.30
2022-07-29T12:39:39.546Z,24.30
2022-07-29T12:42:15.017Z,24.20
2022-07-29T12:44:47.622Z,24.20
2022-07-29T12:47:16.973Z,24.20
2022-07-29T12:49:45.730Z,24.10
2022-07-29T12:52:26.759Z,24.20
2022-07-29T12:54:54.707Z,24.30
2022-07-29T12:57:23.102Z,24.40
2022-07-29T13:00:02.045Z,24.50
2022-07-29T13:02:31.385Z,24.60
2022-07-29T13:04:59.803Z,24.60
2022-07-29T13:07:54.000Z,24.50
2022-07-29T13:10:17.092Z,24.40
2022-07-29T13:13:05.361Z,24.40
2022-07-29T13:15:33.555Z,24.30
2022-07-29T13:18:02.886Z,24.30
2022-07-29T13:20:31.384Z,24.30
2022-07-29T13:22:59.701Z,24.20
2022-07-29T13:25:28.308Z,24.20
2022-07-29T13:27:56.518Z,24.20
2022-07-29T13:30:24.759Z,24.10
2022-07-29T13:32:53.056Z,24.20
2022-07-29T13:35:22.378Z,24.30
2022-07-29T13:37:50.325Z,24.40
2022-07-29T13:40:20.003Z,24.50
2022-07-29T13:42:48.021Z,24.50
2022-07-29T13:45:16.011Z,24.50
2022-07-29T13:47:49.221Z,24.50
2022-07-29T13:50:17.499Z,24.40
2022-07-29T13:52:49.006Z,24.40
2022-07-29T13:55:16.906Z,24.30
2022-07-29T13:57:44.849Z,24.30
2022-07-29T14:00:14.096Z,24.20
2022-07-29T14:02:42.053Z,24.20
2022-07-29T14:05:10.777Z,24.20
2022-07-29T14:07:39.570Z,24.20
2022-07-29T14:10:09.705Z,24.10
2022-07-29T14:12:37.627Z,24.10
2022-07-29T14:15:06.352Z,24.20
2022-07-29T14:17:34.286Z,24.30
2022-07-29T14:20:02.350Z,24.40
2022-07-29T14:22:30.956Z,24.50
2022-07-29T14:24:58.883Z,24.50
2022-07-29T14:27:37.410Z,24.50
2022-07-29T14:30:07.046Z,24.50
2022-07-29T14:32:34.954Z,24.40
2022-07-29T14:35:02.876Z,24.40
2022-07-29T14:37:39.957Z,24.30
2022-07-29T14:40:09.398Z,24.30
2022-07-29T14:42:39.013Z,24.20
2022-07-29T14:45:08.030Z,24.20
2022-07-29T14:47:36.035Z,24.20
2022-07-29T14:50:04.102Z,24.20
2022-07-29T14:52:32.530Z,24.10
2022-07-29T14:55:00.474Z,24.10
2022-07-29T14:57:28.517Z,24.20
2022-07-29T14:59:57.883Z,24.30
2022-07-29T15:02:45.661Z,24.40
2022-07-29T15:05:13.820Z,24.50
2022-07-29T15:07:41.866Z,24.50
2022-07-29T15:10:09.923Z,24.40
2022-07-29T15:12:37.867Z,24.40
2022-07-29T15:15:08.336Z,24.40
2022-07-29T15:17:36.386Z,24.30
2022-07-29T15:20:04.751Z,24.30
2022-07-29T15:22:32.669Z,24.20
2022-07-29T15:25:00.684Z,24.20
2022-07-29T15:27:28.659Z,24.20
2022-07-29T15:29:56.807Z,24.20
2022-07-29T15:32:26.149Z,24.10
2022-07-29T15:34:54.146Z,24.10
2022-07-29T15:37:22.158Z,24.10
2022-07-29T15:39:50.341Z,24.30
2022-07-29T15:42:18.332Z,24.40
2022-07-29T15:44:46.269Z,24.50
2022-07-29T15:47:14.245Z,24.50
2022-07-29T15:49:48.273Z,24.50
2022-07-29T15:52:18.085Z,24.50
2022-07-29T15:54:46.096Z,24.40
2022-07-29T15:57:14.054Z,24.40
2022-07-29T15:59:42.031Z,24.30
2022-07-29T16:02:11.109Z,24.30
2022-07-29T16:04:39.060Z,24.30
2022-07-29T16:07:08.491Z,24.20
2022-07-29T16:09:36.423Z,24.20
2022-07-29T16:12:11.110Z,24.20
2022-07-29T16:14:43.775Z,24.10
2022-07-29T16:17:14.785Z,24.10
2022-07-29T16:19:43.730Z,24.20
2022-07-29T16:22:13.151Z,24.30
2022-07-29T16:24:41.674Z,24.40
2022-07-29T16:27:09.695Z,24.50
2022-07-29T16:29:37.946Z,24.60
2022-07-29T16:32:06.637Z,24.50
2022-07-29T16:34:34.656Z,24.50
2022-07-29T16:37:03.024Z,24.40
2022-07-29T16:39:32.730Z,24.40
2022-07-29T16:42:03.035Z,24.40
2022-07-29T16:44:33.158Z,24.30
2022-07-29T16:47:02.764Z,24.30
2022-07-29T16:49:31.569Z,24.20
2022-07-29T16:51:59.537Z,24.20
2022-07-29T16:54:27.526Z,24.20
2022-07-29T16:56:57.140Z,24.20
2022-07-29T16:59:25.391Z,24.20
2022-07-29T17:01:53.427Z,24.30
2022-07-29T17:04:22.901Z,24.40
2022-07-29T17:06:51.488Z,24.50
2022-07-29T17:09:19.394Z,24.60
2022-07-29T17:11:54.909Z,24.50
2022-07-29T17:14:25.753Z,24.50
2022-07-29T17:17:02.696Z,24.50
2022-07-29T17:19:31.724Z,24.40
2022-07-29T17:22:08.415Z,24.40
2022-07-29T17:24:38.905Z,24.30
2022-07-29T17:27:08.111Z,24.30
2022-07-29T17:29:37.397Z,24.30
2022-07-29T17:32:07.460Z,24.30
2022-07-29T17:34:35.745Z,24.20
2022-07-29T17:37:03.797Z,24.20
2022-07-29T17:39:31.843Z,24.20
2022-07-29T17:42:00.514Z,24.30
2022-07-29T17:44:28.499Z,24.30
2022-07-29T17:46:58.154Z,24.40
2022-07-29T17:49:26.801Z,24.60
2022-07-29T17:51:58.989Z,24.60
2022-07-29T17:54:28.642Z,24.50
2022-07-29T17:56:57.065Z,24.50
2022-07-29T17:59:25.274Z,24.40
2022-07-29T18:01:53.215Z,24.40
2022-07-29T18:04:23.420Z,24.40
2022-07-29T18:06:51.537Z,24.30
2022-07-29T18:09:19.842Z,24.30
2022-07-29T18:11:48.750Z,24.30
2022-07-29T18:14:16.932Z,24.30
2022-07-29T18:16:44.964Z,24.20
2022-07-29T18:19:13.121Z,24.20
2022-07-29T18:21:51.946Z,24.20
2022-07-29T18:24:22.843Z,24.30
2022-07-29T18:26:50.796Z,24.40
2022-07-29T18:29:18.917Z,24.60
2022-07-29T18:31:46.877Z,24.60
2022-07-29T18:34:14.943Z,24.60
2022-07-29T18:36:45.638Z,24.50
2022-07-29T18:39:20.975Z,24.50
2022-07-29T18:41:50.719Z,24.50
2022-07-29T18:44:19.241Z,24.40
2022-07-29T18:46:47.995Z,24.40
2022-07-29T18:49:16.170Z,24.30
2022-07-29T18:51:45.491Z,24.30
2022-07-29T18:54:13.489Z,24.30
2022-07-29T18:56:41.409Z,24.30
2022-07-29T18:59:09.405Z,24.20
2022-07-29T19:01:38.160Z,24.20
2022-07-29T19:04:06.312Z,24.30
2022-07-29T19:06:34.261Z,24.40
2022-07-29T19:09:03.652Z,24.50
2022-07-29T19:11:31.657Z,24.60
2022-07-29T19:13:59.664Z,24.60
2022-07-29T19:16:27.752Z,24.60
2022-07-29T19:18:55.771Z,24.50
2022-07-29T19:21:25.334Z,24.50
2022-07-29T19:24:05.872Z,24.50
2022-07-29T19:26:39.225Z,24.40
2022-07-29T19:29:07.219Z,24.40
2022-07-29T19:31:35.285Z,24.30
2022-07-29T19:34:03.345Z,24.40
2022-07-29T19:36:31.413Z,24.40
2022-07-29T19:39:00.081Z,24.50
2022-07-29T19:41:28.311Z,24.60
2022-07-29T19:43:57.631Z,24.60
2022-07-29T19:46:28.618Z,24.60
2022-07-29T19:48:56.803Z,24.50
2022-07-29T19:51:24.922Z,24.50
2022-07-29T19:53:52.932Z,24.40
2022-07-29T19:56:20.968Z,24.40
2022-07-29T19:58:49.004Z,24.30
2022-07-29T20:01:18.353Z,24.30
2022-07-29T20:03:46.598Z,24.30
2022-07-29T20:06:14.577Z,24.30
2022-07-29T20:08:42.527Z,24.30
2022-07-29T20:11:10.543Z,24.20
2022-07-29T20:13:38.522Z,24.30
2022-07-29T20:16:08.224Z,24.40
2022-07-29T20:18:37.712Z,24.40
2022-07-29T20:21:05.693Z,24.50
2022-07-29T20:23:33.733Z,24.60
2022-07-29T20:26:01.794Z,24.70
2022-07-29T20:28:29.742Z,24.60
2022-07-29T20:30:57.750Z,24.50
2022-07-29T20:33:25.768Z,24.50
2022-07-29T20:35:55.295Z,24.50
2022-07-29T20:38:23.315Z,24.40
2022-07-29T20:40:53.233Z,24.40
2022-07-29T20:43:21.236Z,24.40
2022-07-29T20:45:49.225Z,24.40
2022-07-29T20:48:17.221Z,24.30
2022-07-29T20:50:47.462Z,24.30
2022-07-29T20:53:19.291Z,24.30
2022-07-29T20:55:47.290Z,24.30
2022-07-29T20:58:15.317Z,24.40
2022-07-29T21:00:43.413Z,24.50
2022-07-29T21:03:11.426Z,24.60
2022-07-29T21:05:40.605Z,24.60
2022-07-29T21:08:10.859Z,24.60
2022-07-29T21:10:40.176Z,24.60
2022-07-29T21:13:08.149Z,24.50
2022-07-29T21:15:36.533Z,24.50
2022-07-29T21:18:06.051Z,24.40
2022-07-29T21:20:34.069Z,24.40
2022-07-29T21:23:02.019Z,24.40
2022-07-29T21:25:30.108Z,24.40
2022-07-29T21:28:16.744Z,24.40
2022-07-29T21:30:44.793Z,24.50
2022-07-29T21:33:12.818Z,24.70
2022-07-29T21:36:10.289Z,24.70
2022-07-29T21:38:28.793Z,24.60
2022-07-29T21:40:56.814Z,24.60
2022-07-29T21:43:28.494Z,24.50
2022-07-29T21:45:56.534Z,24.50
2022-07-29T21:48:25.075Z,24.50
2022-07-29T21:50:53.103Z,24.40
2022-07-29T21:53:22.143Z,24.40
2022-07-29T21:55:51.617Z,24.40
2022-07-29T21:58:22.793Z,24.30
2022-07-29T22:00:52.131Z,24.30
2022-07-29T22:03:20.095Z,24.30
2022-07-29T22:05:48.021Z,24.30
2022-07-29T22:08:15.946Z,24.40
2022-07-29T22:10:43.913Z,24.50
2022-07-29T22:13:11.925Z,24.60
2022-07-29T22:15:42.043Z,24.70
2022-07-29T22:18:20.621Z,24.60
2022-07-29T22:20:49.745Z,24.60
2022-07-29T22:23:17.665Z,24.50
2022-07-29T22:25:45.599Z,24.50
2022-07-29T22:28:13.563Z,24.50
2022-07-29T22:30:41.553Z,24.40
2022-07-29T22:33:09.500Z,24.40
2022-07-29T22:35:48.570Z,24.40
2022-07-29T22:38:17.432Z,24.30
2022-07-29T22:40:45.405Z,24.30
2022-07-29T22:43:13.370Z,24.30
2022-07-29T22:45:41.390Z,24.30
2022-07-29T22:48:10.461Z,24.40
2022-07-29T22:50:39.600Z,24.50
2022-07-29T22:53:08.936Z,24.60
2022-07-29T22:55:36.891Z,24.70
2022-07-29T22:58:04.874Z,24.70
2022-07-29T23:00:32.957Z,24.70
2022-07-29T23:03:00.888Z,24.60
2022-07-29T23:05:28.885Z,24.60
2022-07-29T23:07:56.874Z,24.50
2022-07-29T23:10:26.255Z,24.50
2022-07-29T23:12:54.240Z,24.40
2022-07-29T23:15:22.773Z,24.40
2022-07-29T23:17:50.735Z,24.40
2022-07-29T23:20:19.101Z,24.40
2022-07-29T23:22:47.006Z,24.30
2022-07-29T23:25:14.923Z,24.30
2022-07-29T23:27:44.264Z,24.30
2022-07-29T23:30:12.738Z,24.40
2022-07-29T23:32:40.780Z,24.50
2022-07-29T23:35:10.025Z,24.60
2022-07-29T23:37:39.165Z,24.70
2022-07-29T23:40:13.667Z,24.80
2022-07-29T23:42:43.793Z,24.70
2022-07-29T23:45:12.281Z,24.60
2022-07-29T23:47:40.332Z,24.60
2022-07-29T23:50:09.422Z,24.50
2022-07-29T23:52:37.409Z,24.50
2022-07-29T23:55:36.710Z,24.40
2022-07-29T23:57:56.585Z,24.40
